createdAt,value
2018-05-17T00:01:13.986Z,11.89
2018-05-17T00:03:42.373Z,12.04
2018-05-17T00:06:10.778Z,12.06
2018-05-17T00:08:39.174Z,12.05
2018-05-17T00:11:07.610Z,11.91
2018-05-17T00:13:36.018Z,12.06
2018-05-17T00:16:05.178Z,11.95
2018-05-17T00:18:33.590Z,11.72
2018-05-17T00:21:01.978Z,11.67
2018-05-17T00:23:30.371Z,11.68
2018-05-17T00:25:58.762Z,11.66
2018-05-17T00:28:27.242Z,11.98
2018-05-17T00:30:55.636Z,11.84
2018-05-17T00:33:24.058Z,11.97
2018-05-17T00:35:52.506Z,12.07
2018-05-17T00:38:20.915Z,12.14
2018-05-17T00:40:50.062Z,12.19
2018-05-17T00:43:18.454Z,11.96
2018-05-17T00:45:46.850Z,12.03
2018-05-17T00:48:15.288Z,11.90
2018-05-17T00:50:43.797Z,11.93
2018-05-17T00:53:33.970Z,11.89
2018-05-17T00:56:02.398Z,11.77
2018-05-17T00:58:31.557Z,11.83
2018-05-17T01:00:59.963Z,11.74
2018-05-17T01:03:28.365Z,11.81
2018-05-17T01:05:57.532Z,11.68
2018-05-17T01:08:25.914Z,11.60
2018-05-17T01:10:54.317Z,11.62
2018-05-17T01:13:22.736Z,11.57
2018-05-17T01:15:51.179Z,11.42
2018-05-17T01:18:19.557Z,11.60
2018-05-17T01:20:47.955Z,11.38
2018-05-17T01:23:16.359Z,11.43
2018-05-17T01:25:45.561Z,11.24
2018-05-17T01:28:14.691Z,11.15
2018-05-17T01:30:43.097Z,11.29
2018-05-17T01:33:11.478Z,11.05
2018-05-17T01:35:40.115Z,11.09
2018-05-17T01:38:27.190Z,11.15
2018-05-17T01:40:56.359Z,10.99
2018-05-17T01:43:24.836Z,10.89
2018-05-17T01:45:53.221Z,10.81
2018-05-17T01:48:21.607Z,10.88
2018-05-17T01:50:49.997Z,10.61
2018-05-17T01:53:18.374Z,10.39
2018-05-17T01:55:46.845Z,10.54
2018-05-17T01:58:16.094Z,10.42
2018-05-17T02:00:44.489Z,10.43
2018-05-17T02:03:12.874Z,10.38
2018-05-17T02:05:41.277Z,10.10
2018-05-17T02:08:09.647Z,10.19
2018-05-17T02:10:38.019Z,10.10
2018-05-17T02:13:06.402Z,10.12
2018-05-17T02:15:34.777Z,9.96
2018-05-17T02:18:03.923Z,9.82
2018-05-17T02:20:33.066Z,9.74
2018-05-17T02:23:01.441Z,9.77
2018-05-17T02:25:29.870Z,9.91
2018-05-17T02:27:59.026Z,10.17
2018-05-17T02:30:27.413Z,9.99
2018-05-17T02:32:56.617Z,10.00
2018-05-17T02:35:24.998Z,10.04
2018-05-17T02:37:53.405Z,9.88
2018-05-17T02:40:21.789Z,9.93
2018-05-17T02:42:50.185Z,9.98
2018-05-17T02:45:18.566Z,9.91
2018-05-17T02:47:47.758Z,10.07
2018-05-17T02:50:16.154Z,9.89
2018-05-17T02:52:44.514Z,9.82
2018-05-17T02:55:13.675Z,9.95
2018-05-17T02:57:42.041Z,9.80
2018-05-17T03:00:11.218Z,9.88
2018-05-17T03:02:39.616Z,9.86
2018-05-17T03:05:08.745Z,9.71
2018-05-17T03:07:37.131Z,9.82
2018-05-17T03:10:05.535Z,9.82
2018-05-17T03:12:33.894Z,9.80
2018-05-17T03:15:02.357Z,9.95
2018-05-17T03:17:31.525Z,10.05
2018-05-17T03:19:59.893Z,9.94
2018-05-17T03:22:28.274Z,9.82
2018-05-17T03:24:56.658Z,9.71
2018-05-17T03:27:25.037Z,9.88
2018-05-17T03:29:53.544Z,9.68
2018-05-17T03:32:21.913Z,9.73
2018-05-17T03:34:50.294Z,9.54
2018-05-17T03:37:19.443Z,9.42
2018-05-17T03:39:48.595Z,9.54
2018-05-17T03:42:16.978Z,9.37
2018-05-17T03:44:45.409Z,9.36
2018-05-17T03:47:13.818Z,9.31
2018-05-17T03:49:42.197Z,9.32
2018-05-17T03:52:10.610Z,9.25
2018-05-17T03:54:38.987Z,9.15
2018-05-17T03:57:07.370Z,9.32
2018-05-17T03:59:35.889Z,9.40
2018-05-17T04:02:22.064Z,9.32
2018-05-17T04:05:08.963Z,9.30
2018-05-17T04:07:37.439Z,9.28
2018-05-17T04:10:05.825Z,9.28
2018-05-17T04:12:34.223Z,9.40
2018-05-17T04:15:02.673Z,9.49
2018-05-17T04:17:31.065Z,9.42
2018-05-17T04:19:59.446Z,9.46
2018-05-17T04:22:27.833Z,9.44
2018-05-17T04:24:56.213Z,9.48
2018-05-17T04:27:24.610Z,9.56
2018-05-17T04:29:52.986Z,9.48
2018-05-17T04:32:21.443Z,9.38
2018-05-17T04:34:49.837Z,9.32
2018-05-17T04:37:18.204Z,9.29
2018-05-17T04:39:46.599Z,9.29
2018-05-17T04:42:14.975Z,9.31
2018-05-17T04:44:43.365Z,9.42
2018-05-17T04:47:11.855Z,9.46
2018-05-17T04:49:40.146Z,9.50
2018-05-17T04:52:08.510Z,9.75
2018-05-17T04:54:36.910Z,9.76
2018-05-17T04:57:05.315Z,9.66
2018-05-17T04:59:33.702Z,9.76
2018-05-17T05:02:02.122Z,9.87
2018-05-17T05:04:31.266Z,10.23
2018-05-17T05:06:59.659Z,10.14
2018-05-17T05:09:28.132Z,10.22
2018-05-17T05:11:57.278Z,10.33
2018-05-17T05:14:26.449Z,10.07
2018-05-17T05:16:54.824Z,10.21
2018-05-17T05:19:23.230Z,10.27
2018-05-17T05:21:51.618Z,10.37
2018-05-17T05:24:20.010Z,10.40
2018-05-17T05:26:49.194Z,10.43
2018-05-17T05:29:17.597Z,10.58
2018-05-17T05:31:46.766Z,10.77
2018-05-17T05:34:15.207Z,10.77
2018-05-17T05:36:43.597Z,10.73
2018-05-17T05:39:12.011Z,10.60
2018-05-17T05:41:40.398Z,10.72
2018-05-17T05:44:08.779Z,10.99
2018-05-17T05:46:37.174Z,10.99
2018-05-17T05:49:05.575Z,10.98
2018-05-17T05:51:34.749Z,11.18
2018-05-17T05:54:03.148Z,11.25
2018-05-17T05:56:31.557Z,11.03
2018-05-17T05:58:59.951Z,11.09
2018-05-17T06:01:28.351Z,11.05
2018-05-17T06:03:56.736Z,11.24
2018-05-17T06:06:25.121Z,11.45
2018-05-17T06:08:53.544Z,11.45
2018-05-17T06:11:21.971Z,11.57
2018-05-17T06:13:50.379Z,11.41
2018-05-17T06:16:18.777Z,11.50
2018-05-17T06:18:47.182Z,11.78
2018-05-17T06:21:15.677Z,11.87
2018-05-17T06:23:44.884Z,11.68
2018-05-17T06:26:13.217Z,11.95
2018-05-17T06:28:41.631Z,11.92
2018-05-17T06:31:10.025Z,11.76
2018-05-17T06:33:39.214Z,11.91
2018-05-17T06:36:07.665Z,12.03
2018-05-17T06:38:36.026Z,12.30
2018-05-17T06:41:04.429Z,12.28
2018-05-17T06:43:32.830Z,12.17
2018-05-17T06:46:02.049Z,12.41
2018-05-17T06:48:30.437Z,12.18
2018-05-17T06:50:58.831Z,11.98
2018-05-17T06:53:28.002Z,12.37
2018-05-17T06:55:56.412Z,12.47
2018-05-17T06:58:24.809Z,12.51
2018-05-17T07:00:54.003Z,12.40
2018-05-17T07:03:22.397Z,12.73
2018-05-17T07:05:51.610Z,12.77
2018-05-17T07:08:20.039Z,12.64
2018-05-17T07:10:48.490Z,12.73
2018-05-17T07:13:16.942Z,12.71
2018-05-17T07:15:46.139Z,12.56
2018-05-17T07:18:14.725Z,12.37
2018-05-17T07:20:43.706Z,12.66
2018-05-17T07:23:12.101Z,12.81
2018-05-17T07:25:40.491Z,12.63
2018-05-17T07:28:09.706Z,12.64
2018-05-17T07:30:38.856Z,13.15
2018-05-17T07:33:07.274Z,13.24
2018-05-17T07:35:35.744Z,13.91
2018-05-17T07:38:04.131Z,14.15
2018-05-17T07:40:32.516Z,15.21
2018-05-17T07:43:00.988Z,17.05
2018-05-17T07:45:29.378Z,17.66
2018-05-17T07:47:57.759Z,17.27
2018-05-17T07:50:26.154Z,16.27
2018-05-17T07:52:54.570Z,16.17
2018-05-17T07:55:23.019Z,15.46
2018-05-17T07:57:51.419Z,14.59
2018-05-17T08:00:20.555Z,14.26
2018-05-17T08:02:48.944Z,15.20
2018-05-17T08:05:18.099Z,15.10
2018-05-17T08:07:46.478Z,16.70
2018-05-17T08:10:14.870Z,15.94
2018-05-17T08:12:44.031Z,16.49
2018-05-17T08:15:12.426Z,15.85
2018-05-17T08:17:40.813Z,15.28
2018-05-17T08:20:09.222Z,15.74
2018-05-17T08:22:37.606Z,16.21
2018-05-17T08:25:06.740Z,16.11
2018-05-17T08:27:35.122Z,15.91
2018-05-17T08:30:03.503Z,17.24
2018-05-17T08:32:31.878Z,18.50
2018-05-17T08:35:00.258Z,19.34
2018-05-17T08:37:28.650Z,20.52
2018-05-17T08:39:57.044Z,20.22
2018-05-17T08:42:25.458Z,18.82
2018-05-17T08:44:53.861Z,17.73
2018-05-17T08:47:22.285Z,18.08
2018-05-17T08:49:50.650Z,20.71
2018-05-17T08:52:20.179Z,21.95
2018-05-17T08:54:48.554Z,20.04
2018-05-17T08:57:17.029Z,18.29
2018-05-17T08:59:45.664Z,17.69
2018-05-17T09:02:14.220Z,17.55
2018-05-17T09:04:42.618Z,17.81
2018-05-17T09:07:10.994Z,19.10
2018-05-17T09:09:39.414Z,18.47
2018-05-17T09:12:07.786Z,18.81
2018-05-17T09:14:36.389Z,17.71
2018-05-17T09:17:04.852Z,17.74
2018-05-17T09:19:33.379Z,17.62
2018-05-17T09:22:02.538Z,16.67
2018-05-17T09:24:30.917Z,18.41
2018-05-17T09:26:59.310Z,19.10
2018-05-17T09:29:27.924Z,18.93
2018-05-17T09:31:56.327Z,17.72
2018-05-17T09:34:25.519Z,17.90
2018-05-17T09:36:54.685Z,19.21
2018-05-17T09:39:23.061Z,20.44
2018-05-17T09:41:51.462Z,20.74
2018-05-17T09:44:20.013Z,21.58
2018-05-17T09:46:48.467Z,21.09
2018-05-17T09:49:17.641Z,22.09
2018-05-17T09:51:46.023Z,22.95
2018-05-17T09:54:15.198Z,22.70
2018-05-17T09:56:43.634Z,22.95
2018-05-17T09:59:12.769Z,21.07
2018-05-17T10:01:41.229Z,19.94
2018-05-17T10:04:10.385Z,20.44
2018-05-17T10:06:38.756Z,21.85
2018-05-17T10:09:07.160Z,22.11
2018-05-17T10:11:35.529Z,22.38
2018-05-17T10:14:03.917Z,23.24
2018-05-17T10:16:32.567Z,22.00
2018-05-17T10:19:00.973Z,21.10
2018-05-17T10:21:29.397Z,21.03
2018-05-17T10:23:57.970Z,21.24
2018-05-17T10:26:26.348Z,22.72
2018-05-17T10:28:55.500Z,23.18
2018-05-17T10:31:23.882Z,23.23
2018-05-17T10:33:52.262Z,23.13
2018-05-17T10:36:20.672Z,22.68
2018-05-17T10:38:49.071Z,22.57
2018-05-17T10:41:17.539Z,20.09
2018-05-17T10:43:45.924Z,21.53
2018-05-17T10:46:14.323Z,22.45
2018-05-17T10:48:42.690Z,23.45
2018-05-17T10:51:11.081Z,23.70
2018-05-17T10:53:39.458Z,22.33
2018-05-17T10:56:07.849Z,22.52
2018-05-17T10:58:36.431Z,22.08
2018-05-17T11:01:04.825Z,22.48
2018-05-17T11:03:33.337Z,23.12
2018-05-17T11:06:01.719Z,23.06
2018-05-17T11:08:30.882Z,23.15
2018-05-17T11:10:59.258Z,23.01
2018-05-17T11:13:27.762Z,22.49
2018-05-17T11:15:56.142Z,21.86
2018-05-17T11:18:24.549Z,22.25
2018-05-17T11:20:52.924Z,22.49
2018-05-17T11:23:21.322Z,21.51
2018-05-17T11:25:49.740Z,22.27
2018-05-17T11:28:18.836Z,22.02
2018-05-17T11:30:47.331Z,21.22
2018-05-17T11:33:15.921Z,22.20
2018-05-17T11:35:44.306Z,22.63
2018-05-17T11:38:12.709Z,22.35
2018-05-17T11:40:41.110Z,22.29
2018-05-17T11:43:09.695Z,22.16
2018-05-17T11:45:38.082Z,22.13
2018-05-17T11:48:06.474Z,21.83
2018-05-17T11:50:34.865Z,21.99
2018-05-17T11:53:03.570Z,22.27
2018-05-17T11:55:32.718Z,22.38
2018-05-17T11:58:01.093Z,21.92
2018-05-17T12:00:29.600Z,22.07
2018-05-17T12:02:58.258Z,22.34
2018-05-17T12:05:26.646Z,22.14
2018-05-17T12:07:55.029Z,22.55
2018-05-17T12:10:23.488Z,22.35
2018-05-17T12:12:52.658Z,21.93
2018-05-17T12:15:21.046Z,21.55
2018-05-17T12:17:49.431Z,22.15
2018-05-17T12:20:17.861Z,22.62
2018-05-17T12:22:46.238Z,22.19
2018-05-17T12:25:14.631Z,22.15
2018-05-17T12:27:43.913Z,22.08
2018-05-17T12:30:12.341Z,21.78
2018-05-17T12:32:40.748Z,22.72
2018-05-17T12:35:09.286Z,22.99
2018-05-17T12:37:37.667Z,22.75
2018-05-17T12:40:06.174Z,22.88
2018-05-17T12:42:34.554Z,22.78
2018-05-17T12:45:03.003Z,22.84
2018-05-17T12:47:32.186Z,23.19
2018-05-17T12:50:01.447Z,22.99
2018-05-17T12:52:29.918Z,22.76
2018-05-17T12:54:58.369Z,22.87
2018-05-17T12:57:27.536Z,22.87
2018-05-17T12:59:55.981Z,23.41
2018-05-17T13:02:24.425Z,23.03
2018-05-17T13:04:52.813Z,23.51
2018-05-17T13:07:21.957Z,23.68
2018-05-17T13:09:50.342Z,24.30
2018-05-17T13:12:18.718Z,24.30
2018-05-17T13:14:47.117Z,24.79
2018-05-17T13:17:15.522Z,24.23
2018-05-17T13:19:44.002Z,24.65
2018-05-17T13:22:12.688Z,24.34
2018-05-17T13:24:40.823Z,24.16
2018-05-17T13:27:09.983Z,23.74
2018-05-17T13:29:38.379Z,23.43
2018-05-17T13:32:06.762Z,24.50
2018-05-17T13:34:35.202Z,24.44
2018-05-17T13:37:03.600Z,24.32
2018-05-17T13:39:31.979Z,24.57
2018-05-17T13:42:00.382Z,24.70
2018-05-17T13:44:28.771Z,24.42
2018-05-17T13:46:57.162Z,24.90
2018-05-17T13:49:25.545Z,25.15
2018-05-17T13:51:54.717Z,25.52
2018-05-17T13:54:23.281Z,25.45
2018-05-17T13:56:51.675Z,25.88
2018-05-17T13:59:20.055Z,25.32
2018-05-17T14:01:48.435Z,25.06
2018-05-17T14:04:17.599Z,24.38
2018-05-17T14:06:46.775Z,25.53
2018-05-17T14:09:15.261Z,25.24
2018-05-17T14:11:43.650Z,25.38
2018-05-17T14:14:12.066Z,25.10
2018-05-17T14:16:40.450Z,24.89
2018-05-17T14:19:09.624Z,25.90
2018-05-17T14:21:38.009Z,25.95
2018-05-17T14:24:07.164Z,25.83
2018-05-17T14:26:35.557Z,26.23
2018-05-17T14:29:03.949Z,26.88
2018-05-17T14:31:32.333Z,26.70
2018-05-17T14:34:00.772Z,26.58
2018-05-17T14:36:29.231Z,27.01
2018-05-17T14:38:58.382Z,26.69
2018-05-17T14:41:26.802Z,25.66
2018-05-17T14:43:55.204Z,27.08
2018-05-17T14:46:23.752Z,26.67
2018-05-17T14:48:52.289Z,25.03
2018-05-17T14:51:21.438Z,26.13
2018-05-17T14:53:49.903Z,25.74
2018-05-17T14:56:18.306Z,25.19
2018-05-17T14:58:46.684Z,25.22
2018-05-17T15:01:15.159Z,26.03
2018-05-17T15:03:43.505Z,27.23
2018-05-17T15:06:12.652Z,27.45
2018-05-17T15:08:41.088Z,28.00
2018-05-17T15:11:14.736Z,27.42
2018-05-17T15:13:38.770Z,27.04
2018-05-17T15:16:08.025Z,26.66
2018-05-17T15:18:36.567Z,26.48
2018-05-17T15:21:05.734Z,28.26
2018-05-17T15:23:34.117Z,27.76
2018-05-17T15:26:02.546Z,27.73
2018-05-17T15:28:31.727Z,25.42
2018-05-17T15:31:00.913Z,26.31
2018-05-17T15:33:30.074Z,26.87
2018-05-17T15:35:58.454Z,27.53
2018-05-17T15:38:26.833Z,27.18
2018-05-17T15:40:55.235Z,26.70
2018-05-17T15:43:23.654Z,27.26
2018-05-17T15:45:52.079Z,26.80
2018-05-17T15:48:20.544Z,24.90
2018-05-17T15:50:48.933Z,24.78
2018-05-17T15:53:18.843Z,24.36
2018-05-17T15:55:48.046Z,24.34
2018-05-17T15:58:17.215Z,24.72
2018-05-17T16:00:45.616Z,24.45
2018-05-17T16:03:14.014Z,23.49
2018-05-17T16:05:43.264Z,22.38
2018-05-17T16:08:11.682Z,21.97
2018-05-17T16:10:40.335Z,22.47
2018-05-17T16:13:08.769Z,21.61
2018-05-17T16:15:37.964Z,21.43
2018-05-17T16:18:06.354Z,21.39
2018-05-17T16:20:35.484Z,21.36
2018-05-17T16:23:03.889Z,21.02
2018-05-17T16:25:32.271Z,20.66
2018-05-17T16:28:00.654Z,20.47
2018-05-17T16:30:29.070Z,20.29
2018-05-17T16:32:57.668Z,21.22
2018-05-17T16:35:26.185Z,20.58
2018-05-17T16:37:54.573Z,20.47
2018-05-17T16:40:22.965Z,20.11
2018-05-17T16:42:51.605Z,20.01
2018-05-17T16:45:19.986Z,19.80
2018-05-17T16:47:49.157Z,19.57
2018-05-17T16:50:17.572Z,19.55
2018-05-17T16:52:46.800Z,19.57
2018-05-17T16:55:15.156Z,19.53
2018-05-17T16:57:43.542Z,19.53
2018-05-17T17:00:11.940Z,19.46
2018-05-17T17:02:41.287Z,19.26
2018-05-17T17:05:09.846Z,19.14
2018-05-17T17:07:38.967Z,19.22
2018-05-17T17:10:07.355Z,18.90
2018-05-17T17:12:35.758Z,18.97
2018-05-17T17:15:04.162Z,18.72
2018-05-17T17:17:34.045Z,18.77
2018-05-17T17:20:02.426Z,18.85
2018-05-17T17:22:30.809Z,18.40
2018-05-17T17:24:59.197Z,18.50
2018-05-17T17:27:27.760Z,18.41
2018-05-17T17:29:56.373Z,18.26
2018-05-17T17:32:24.766Z,18.43
2018-05-17T17:34:53.174Z,18.20
2018-05-17T17:37:21.569Z,18.20
2018-05-17T17:39:49.943Z,18.16
2018-05-17T17:42:19.861Z,17.92
2018-05-17T17:44:48.299Z,17.90
2018-05-17T17:47:16.707Z,17.60
2018-05-17T17:49:45.102Z,17.60
2018-05-17T17:52:13.526Z,17.48
2018-05-17T17:54:41.903Z,17.47
2018-05-17T17:57:10.510Z,17.35
2018-05-17T17:59:40.401Z,17.23
2018-05-17T18:02:09.584Z,17.26
2018-05-17T18:04:39.499Z,17.09
2018-05-17T18:07:07.930Z,17.03
2018-05-17T18:09:36.321Z,17.16
2018-05-17T18:12:04.813Z,17.06
2018-05-17T18:14:33.213Z,17.00
2018-05-17T18:17:01.618Z,16.88
2018-05-17T18:19:30.021Z,16.87
2018-05-17T18:21:59.200Z,16.72
2018-05-17T18:24:27.625Z,16.46
2018-05-17T18:26:56.019Z,16.17
2018-05-17T18:29:24.481Z,16.24
2018-05-17T18:31:53.641Z,16.25
2018-05-17T18:34:22.097Z,16.08
2018-05-17T18:36:50.533Z,15.94
2018-05-17T18:39:18.982Z,15.67
2018-05-17T18:41:48.201Z,15.78
2018-05-17T18:44:16.614Z,15.75
2018-05-17T18:46:45.848Z,15.62
2018-05-17T18:49:14.295Z,15.55
2018-05-17T18:51:44.161Z,15.64
2018-05-17T18:54:12.578Z,15.61
2018-05-17T18:56:40.974Z,15.50
2018-05-17T18:59:09.434Z,15.27
2018-05-17T19:01:37.876Z,15.03
2018-05-17T19:04:07.045Z,15.06
2018-05-17T19:06:35.436Z,15.16
2018-05-17T19:09:05.386Z,15.21
2018-05-17T19:11:33.782Z,15.07
2018-05-17T19:14:02.251Z,14.89
2018-05-17T19:16:30.731Z,14.86
2018-05-17T19:18:59.226Z,14.57
2018-05-17T19:21:27.629Z,14.51
2018-05-17T19:23:56.024Z,14.45
2018-05-17T19:26:24.475Z,14.47
2018-05-17T19:28:53.478Z,14.47
2018-05-17T19:31:21.864Z,14.45
2018-05-17T19:33:50.236Z,14.30
2018-05-17T19:36:19.381Z,14.27
2018-05-17T19:38:47.790Z,14.22
2018-05-17T19:41:16.962Z,14.12
2018-05-17T19:43:45.347Z,13.98
2018-05-17T19:46:13.749Z,13.75
2018-05-17T19:48:42.140Z,13.74
2018-05-17T19:51:10.626Z,13.64
2018-05-17T19:53:39.773Z,13.61
2018-05-17T19:56:08.225Z,13.65
2018-05-17T19:58:37.370Z,13.72
2018-05-17T20:01:05.837Z,13.58
2018-05-17T20:03:34.246Z,13.69
2018-05-17T20:06:02.698Z,13.47
2018-05-17T20:08:31.080Z,13.26
2018-05-17T20:10:59.459Z,13.33
2018-05-17T20:13:27.858Z,13.31
2018-05-17T20:15:56.256Z,13.20
2018-05-17T20:18:24.666Z,13.20
2018-05-17T20:20:53.066Z,12.93
2018-05-17T20:23:21.686Z,13.09
2018-05-17T20:25:50.169Z,13.12
2018-05-17T20:28:18.642Z,13.11
2018-05-17T20:30:47.010Z,13.08
2018-05-17T20:33:16.211Z,13.09
2018-05-17T20:35:44.817Z,13.12
2018-05-17T20:38:13.226Z,12.97
2018-05-17T20:40:41.800Z,12.93
2018-05-17T20:43:10.196Z,12.88
2018-05-17T20:45:38.606Z,12.79
2018-05-17T20:48:07.086Z,12.82
2018-05-17T20:50:35.491Z,12.77
2018-05-17T20:53:04.651Z,12.75
2018-05-17T20:55:33.065Z,12.56
2018-05-17T20:58:01.479Z,12.72
2018-05-17T21:00:30.723Z,12.70
2018-05-17T21:02:59.077Z,12.61
2018-05-17T21:05:27.503Z,12.38
2018-05-17T21:07:55.969Z,12.44
2018-05-17T21:10:24.376Z,12.26
2018-05-17T21:12:52.819Z,12.19
2018-05-17T21:15:22.025Z,12.25
2018-05-17T21:17:50.440Z,12.31
2018-05-17T21:20:19.825Z,12.08
2018-05-17T21:22:48.237Z,12.12
2018-05-17T21:25:16.655Z,12.03
2018-05-17T21:27:45.844Z,11.74
2018-05-17T21:30:15.021Z,11.66
2018-05-17T21:32:43.425Z,11.60
2018-05-17T21:35:11.836Z,11.56
2018-05-17T21:37:40.307Z,11.51
2018-05-17T21:40:09.579Z,11.30
2018-05-17T21:42:38.769Z,11.21
2018-05-17T21:45:07.193Z,11.44
2018-05-17T21:47:36.370Z,11.42
2018-05-17T21:50:04.779Z,11.39
2018-05-17T21:52:34.114Z,11.09
2018-05-17T21:55:02.550Z,11.00
2018-05-17T21:57:30.957Z,10.96
2018-05-17T22:00:00.118Z,11.02
2018-05-17T22:02:28.512Z,11.04
2018-05-17T22:04:57.667Z,10.84
2018-05-17T22:07:26.080Z,10.95
2018-05-17T22:09:54.486Z,10.99
2018-05-17T22:12:22.877Z,10.96
2018-05-17T22:14:51.301Z,10.79
2018-05-17T22:17:19.702Z,10.78
2018-05-17T22:19:48.169Z,10.73
2018-05-17T22:22:16.567Z,10.85
2018-05-17T22:24:44.958Z,10.65
2018-05-17T22:27:13.342Z,10.57
2018-05-17T22:29:41.962Z,10.73
2018-05-17T22:32:11.130Z,10.78
2018-05-17T22:34:40.069Z,10.55
2018-05-17T22:37:09.638Z,10.54
2018-05-17T22:39:38.040Z,10.48
2018-05-17T22:42:06.429Z,10.38
2018-05-17T22:44:34.829Z,10.21
2018-05-17T22:47:05.721Z,10.00
2018-05-17T22:49:34.221Z,10.09
2018-05-17T22:52:02.659Z,9.90
2018-05-17T22:54:31.039Z,9.87
2018-05-17T22:57:12.110Z,9.74
2018-05-17T22:59:41.245Z,9.64
2018-05-17T23:02:09.656Z,9.46
2018-05-17T23:04:38.013Z,9.31
2018-05-17T23:07:06.405Z,9.20
2018-05-17T23:09:34.813Z,9.07
2018-05-17T23:12:03.213Z,8.95
2018-05-17T23:14:32.368Z,8.95
2018-05-17T23:17:00.783Z,8.89
2018-05-17T23:19:29.155Z,8.77
2018-05-17T23:21:57.530Z,8.70
2018-05-17T23:24:25.897Z,8.74
2018-05-17T23:26:54.273Z,8.64
2018-05-17T23:29:22.652Z,8.53
2018-05-17T23:31:51.038Z,8.45
2018-05-17T23:34:19.423Z,8.41
2018-05-17T23:36:47.798Z,8.37
2018-05-17T23:39:16.181Z,8.32
2018-05-17T23:41:46.439Z,8.32
2018-05-17T23:44:14.831Z,8.38
2018-05-17T23:46:43.292Z,8.39
2018-05-17T23:49:11.697Z,8.29
2018-05-17T23:51:40.090Z,8.28
2018-05-17T23:54:08.468Z,8.23
2018-05-17T23:56:36.841Z,8.15
2018-05-17T23:59:05.232Z,8.14
